Time;durP1;ratioP1;P1;durP2;ratioP2;P2;SDS_P1;SDS_P2;PMS_P1;PMS_P2;Temp;Humidity;BMP_temperature;BMP_pressure;BME280_temperature;BME280_humidity;BME280_pressure;Samples;Min_cycle;Max_cycle;Signal;HPM_P1;HPM_P2
2022/01/28 00:10:14;;;;;;;7.13;4.38;;;;;;;20.74;47.17;100486.81;20392162;28;100480;-68
2022/01/28 00:41:31;;;;;;;5.15;4.00;;;;;;;20.58;47.16;100461.59;20357149;28;100242;-68
2022/01/28 00:51:34;;;;;;;5.97;4.18;;;;;;;20.57;47.21;100488.03;20352756;28;102419;-68
2022/01/28 01:01:36;;;;;;;4.85;3.78;;;;;;;20.51;47.31;100483.19;20357439;28;102756;-67
2022/01/28 01:11:53;;;;;;;4.85;3.78;;;;;;;20.49;46.97;100475.41;20352734;28;100027;-67
2022/01/28 01:21:57;;;;;;;4.30;3.08;;;;;;;20.49;47.12;100462.25;20418550;28;102047;-68
2022/01/28 01:32:03;;;;;;;4.40;3.60;;;;;;;20.44;47.30;100459.13;20412011;28;102196;-68
2022/01/28 01:42:26;;;;;;;4.80;3.45;;;;;;;20.44;47.13;100464.41;20411801;28;102105;-68
2022/01/28 01:52:27;;;;;;;4.57;3.30;;;;;;;20.43;47.21;100439.91;20411047;28;100135;-68
2022/01/28 02:02:33;;;;;;;4.45;3.42;;;;;;;20.39;47.14;100427.06;20426237;28;99168;-67
2022/01/28 02:12:51;;;;;;;3.45;3.13;;;;;;;20.37;47.02;100439.50;20446661;28;101477;-67
2022/01/28 02:23:04;;;;;;;3.97;3.30;;;;;;;20.35;47.05;100429.09;20443715;28;98004;-68
2022/01/28 02:33:21;;;;;;;3.30;2.57;;;;;;;20.33;46.96;100395.97;20442529;28;102914;-67
2022/01/28 03:03:57;;;;;;;2.50;2.20;;;;;;;20.24;46.82;100411.47;20443405;28;99163;-67
2022/01/28 03:14:16;;;;;;;3.58;2.60;;;;;;;20.28;46.53;100433.13;20450017;28;100748;-68
2022/01/28 03:24:25;;;;;;;2.80;2.38;;;;;;;20.27;46.46;100416.47;20408808;28;99059;-68
2022/01/28 03:34:35;;;;;;;2.45;2.25;;;;;;;20.26;46.23;100425.34;20436513;28;101533;-67
2022/01/28 03:44:55;;;;;;;2.28;1.95;;;;;;;20.26;46.31;100421.88;20424061;28;102072;-67
2022/01/28 03:54:56;;;;;;;4.03;2.10;;;;;;;20.24;46.23;100437.75;20427225;28;102977;-67
2022/01/28 04:05:51;;;;;;;2.88;1.95;;;;;;;20.23;46.03;100443.97;20404646;28;99052;-67
2022/01/28 04:25:37;;;;;;;1.60;1.50;;;;;;;20.23;45.85;100451.03;20404879;28;102223;-67
2022/01/28 04:35:38;;;;;;;1.73;1.60;;;;;;;20.22;45.95;100444.09;20443685;28;100682;-67
2022/01/28 05:36:34;;;;;;;1.90;1.30;;;;;;;20.58;47.81;100553.66;20408399;28;99723;-67
2022/01/28 05:46:41;;;;;;;2.67;1.27;;;;;;;20.69;47.35;100563.44;20412804;28;99778;-67
2022/01/28 05:56:42;;;;;;;7.97;1.45;;;;;;;20.78;47.47;100583.00;20379379;28;100393;-68
2022/01/28 06:06:43;;;;;;;15.05;2.72;;;;;;;20.76;45.59;100584.88;20438973;28;100318;-67
2022/01/28 06:16:48;;;;;;;5.20;1.70;;;;;;;20.70;41.99;100582.66;20427958;28;102036;-65
2022/01/28 06:26:55;;;;;;;7.72;1.77;;;;;;;20.71;42.21;100618.56;20432737;28;100561;-66
2022/01/28 06:37:03;;;;;;;10.40;1.60;;;;;;;20.79;43.21;100608.38;20409405;28;101472;-66
2022/01/28 06:47:04;;;;;;;4.55;1.40;;;;;;;20.82;43.60;100599.41;20371114;28;98751;-67
2022/01/28 06:57:05;;;;;;;6.18;1.30;;;;;;;20.90;44.25;100576.00;20412919;28;100887;-67
2022/01/28 07:07:06;;;;;;;5.90;1.38;;;;;;;20.98;43.85;100562.25;20443175;28;99019;-67
2022/01/28 07:17:14;;;;;;;12.45;1.65;;;;;;;21.06;44.24;100570.44;20454156;28;98563;-70
2022/01/28 07:27:19;;;;;;;30.30;1.80;;;;;;;21.10;44.11;100575.38;20435368;28;99776;-67
2022/01/28 07:37:20;;;;;;;20.45;1.98;;;;;;;21.18;44.32;100572.16;20453246;28;98954;-69
2022/01/28 07:47:21;;;;;;;20.20;1.65;;;;;;;21.01;40.67;100554.97;20423727;28;102439;-66
2022/01/28 08:08:21;;;;;;;18.85;1.45;;;;;;;21.07;41.97;100559.78;20460196;28;101664;-68
2022/01/28 08:18:22;;;;;;;22.30;1.80;;;;;;;21.09;39.54;100539.47;20444951;28;98426;-65
2022/01/28 08:28:23;;;;;;;22.13;1.65;;;;;;;21.19;41.26;100544.03;20445288;28;101817;-67
2022/01/28 08:39:04;;;;;;;9.30;1.30;;;;;;;21.22;41.25;100542.00;20452206;28;100276;-66
2022/01/28 08:49:04;;;;;;;12.27;1.13;;;;;;;21.28;43.00;100548.63;20455557;28;100711;-69
2022/01/28 09:43:25;;;;;;;9.02;1.60;;;;;;;21.36;40.48;100569.09;20423994;28;99000;-69
2022/01/28 09:53:25;;;;;;;13.40;1.58;;;;;;;21.42;40.96;100610.78;20458793;28;97787;-68
2022/01/28 10:03:38;;;;;;;8.57;1.55;;;;;;;21.45;41.11;100605.28;20455127;28;100849;-67
2022/01/28 10:14:05;;;;;;;;;;;;;;;21.44;41.16;100624.69;20493263;28;99432;-68
2022/01/28 10:24:27;;;;;;;8.25;1.50;;;;;;;21.37;40.89;100623.47;20470949;28;101316;-67
2022/01/28 10:34:39;;;;;;;16.23;1.60;;;;;;;21.11;35.69;100611.25;20450855;28;98728;-67
2022/01/28 10:55:39;;;;;;;8.70;1.40;;;;;;;21.12;38.17;100588.41;20444450;28;102901;-75
2022/01/28 11:06:02;;;;;;;7.40;1.30;;;;;;;21.17;39.65;100636.31;20417395;28;99472;-75
2022/01/28 11:16:03;;;;;;;;;;;;;;;21.19;39.82;100621.25;20462459;28;100773;-68
2022/01/28 11:26:14;;;;;;;6.43;1.10;;;;;;;21.18;39.78;100622.19;20373868;28;99663;-68
2022/01/28 11:36:36;;;;;;;6.30;1.13;;;;;;;21.21;40.47;100621.94;20361516;28;102293;-69
2022/01/28 11:46:44;;;;;;;6.15;1.20;;;;;;;21.26;39.74;100637.41;20405184;28;101207;-70
2022/01/28 11:56:58;;;;;;;3.65;1.15;;;;;;;21.25;40.17;100627.84;20448185;28;101159;-71
2022/01/28 12:07:22;;;;;;;2.45;1.08;;;;;;;21.28;40.04;100657.41;20434899;28;98525;-70
2022/01/28 12:17:32;;;;;;;3.00;0.90;;;;;;;21.30;39.66;100662.59;20437850;28;98426;-70
2022/01/28 12:27:35;;;;;;;2.55;1.08;;;;;;;21.32;40.58;100663.31;20411942;28;98960;-68
2022/01/28 12:37:48;;;;;;;2.33;1.10;;;;;;;21.32;39.98;100668.56;20430665;28;102184;-68
2022/01/28 12:47:51;;;;;;;3.80;1.13;;;;;;;21.35;40.51;100664.88;20468613;28;99429;-70
2022/01/28 12:57:51;;;;;;;3.30;1.13;;;;;;;21.35;40.40;100683.31;20366773;28;102236;-68
2022/01/28 13:18:18;;;;;;;3.60;1.17;;;;;;;21.53;39.41;100683.75;20413434;28;100989;-69
2022/01/28 13:28:20;;;;;;;4.15;0.82;;;;;;;21.68;40.38;100701.09;20360711;28;100817;-69
2022/01/28 13:38:22;;;;;;;9.63;1.42;;;;;;;21.75;37.96;100697.06;20357008;28;103069;-70
2022/01/28 13:48:33;;;;;;;5.30;1.40;;;;;;;21.82;38.58;100699.22;20439713;28;98150;-69
2022/01/28 13:58:53;;;;;;;5.70;1.52;;;;;;;21.82;38.52;100704.50;20409576;28;98372;-69
2022/01/28 14:09:13;;;;;;;7.65;1.67;;;;;;;21.80;38.26;100699.34;20432022;28;100413;-69
2022/01/28 14:19:16;;;;;;;36.95;2.65;;;;;;;21.80;38.25;100709.03;20433139;28;100714;-68
2022/01/28 14:39:44;;;;;;;5.00;1.40;;;;;;;21.57;36.97;100751.97;20405340;28;101040;-69
2022/01/28 14:49:46;;;;;;;12.00;1.73;;;;;;;21.68;37.31;100750.31;20388434;28;100913;-67
2022/01/28 14:59:47;;;;;;;3.88;1.30;;;;;;;21.74;37.83;100755.16;20392057;28;102448;-69
2022/01/28 15:09:51;;;;;;;11.10;1.48;;;;;;;21.73;38.04;100766.66;20428665;28;100966;-69
2022/01/28 15:19:55;;;;;;;4.55;1.20;;;;;;;21.77;38.33;100786.53;20457142;28;100974;-67
2022/01/28 15:30:01;;;;;;;3.38;1.60;;;;;;;21.77;38.97;100772.53;20446508;28;103267;-68
2022/01/28 15:40:06;;;;;;;8.77;1.70;;;;;;;21.84;39.38;100782.50;20436544;28;99074;-66
2022/01/28 15:50:07;;;;;;;6.25;1.50;;;;;;;21.85;39.44;100781.56;20420319;28;100968;-67
2022/01/28 16:00:12;;;;;;;8.73;1.48;;;;;;;21.83;38.74;100795.81;20476213;28;101480;-66
2022/01/28 16:10:18;;;;;;;11.90;3.10;;;;;;;21.87;39.27;100816.56;20429420;28;99798;-68
2022/01/28 16:20:20;;;;;;;10.75;2.47;;;;;;;21.89;39.56;100833.09;20392014;28;100415;-68
2022/01/28 16:30:21;;;;;;;9.07;1.80;;;;;;;21.86;39.75;100845.66;20416745;28;100647;-68
2022/01/28 16:40:21;;;;;;;8.25;1.85;;;;;;;21.83;39.28;100851.16;20449695;28;99318;-68
2022/01/28 16:50:22;;;;;;;9.13;1.70;;;;;;;21.88;40.13;100872.75;20422846;28;103432;-67
2022/01/28 17:00:27;;;;;;;12.60;2.70;;;;;;;22.00;40.74;100878.94;20446461;28;99654;-69
2022/01/28 17:20:53;;;;;;;13.00;2.10;;;;;;;22.13;41.65;100884.13;20420309;28;99247;-66
2022/01/28 17:31:02;;;;;;;11.68;2.30;;;;;;;22.15;41.10;100896.25;20431693;28;98894;-67
2022/01/28 17:41:03;;;;;;;8.32;2.28;;;;;;;22.15;40.53;100908.63;20366478;28;100479;-67
2022/01/28 17:51:09;;;;;;;5.95;1.50;;;;;;;22.15;41.00;100927.91;20366200;28;98991;-67
2022/01/28 18:01:11;;;;;;;4.70;1.42;;;;;;;22.14;40.66;100922.75;20403398;28;99767;-68
2022/01/28 18:11:38;;;;;;;16.63;1.95;;;;;;;22.12;41.54;100927.28;20426894;28;101050;-68
2022/01/28 18:21:41;;;;;;;9.20;1.60;;;;;;;22.11;41.68;100936.19;20410553;28;103654;-68
2022/01/28 18:31:41;;;;;;;8.13;2.10;;;;;;;21.99;41.72;100954.56;20429760;28;103153;-66
2022/01/28 18:41:48;;;;;;;4.50;1.73;;;;;;;22.01;42.01;100959.75;20366316;28;102282;-67
2022/01/28 18:52:16;;;;;;;9.55;5.20;;;;;;;22.04;41.82;100960.31;20402398;28;101124;-67
2022/01/28 19:46:28;;;;;;;25.08;18.02;;;;;;;22.04;42.89;101001.69;20430695;28;98579;-65
2022/01/28 19:56:35;;;;;;;20.73;16.67;;;;;;;22.04;43.33;101036.81;20450477;28;101728;-66
2022/01/28 20:06:46;;;;;;;28.02;15.75;;;;;;;22.03;43.29;101050.97;20488358;28;97505;-67
2022/01/28 20:27:43;;;;;;;21.92;13.30;;;;;;;21.96;42.86;101067.31;20443364;28;98771;-66
2022/01/28 20:37:56;;;;;;;16.42;11.60;;;;;;;21.87;43.11;101077.56;20452122;28;98220;-66
2022/01/28 20:59:47;;;;;;;16.25;11.10;;;;;;;21.67;43.58;101068.38;20447324;28;98802;-65
2022/01/28 21:43:34;;;;;;;14.90;10.05;;;;;;;21.39;44.17;101108.91;20448755;28;98480;-66
2022/01/28 21:53:37;;;;;;;12.95;9.55;;;;;;;21.33;43.94;101106.69;20381447;28;102903;-66
2022/01/28 22:03:37;;;;;;;13.80;9.43;;;;;;;21.26;44.20;101125.53;20420406;28;98988;-65
2022/01/28 22:46:38;;;;;;;10.65;7.63;;;;;;;21.05;43.87;101169.91;20429558;28;98408;-65
2022/01/28 22:57:35;;;;;;;9.57;6.72;;;;;;;21.01;44.12;101191.28;20479215;28;98189;-65
2022/01/28 23:07:40;;;;;;;10.18;7.07;;;;;;;20.99;44.21;101199.28;20458145;28;98469;-66
2022/01/28 23:18:31;;;;;;;8.18;6.28;;;;;;;20.90;44.28;101198.06;20468547;28;102013;-66
2022/01/28 23:28:56;;;;;;;7.97;6.20;;;;;;;20.82;44.12;101189.81;20470470;28;98355;-65
2022/01/28 23:39:33;;;;;;;6.60;5.50;;;;;;;20.79;44.04;101203.19;20428991;28;100999;-66
